Terminal Aerodrome Forecast
Issued by NWS

Home | Current Version | Previous Version | Text Only | Print | Product List | Glossary On
Versions: 1 2 3 4 5 6 7 8 9 10 11 12 13 14 15 16 17
000
FTUS43 KDLH 262300 RRA
TAFHIB
TAF
KHIB 262341Z 2700/2724 23005KT P6SM VCTS BKN110CB
      TEMPO 2700/2702 6SM -TSRA BKN040CB
     FM270300 28007KT P6SM SCT040 BKN100
     FM270900 30008KT P6SM VCSH BKN025 OVC050
      TEMPO 2711/2715 6SM -SHRA BR OVC015
     FM271500 35014G21KT P6SM VCSH BKN022 OVC060=

USA.gov is the U.S. government's official web portal to all federal, state and local government web resources and services.